createdAt,value
2023-04-18T00:01:45.608Z,17.40
2023-04-18T00:04:13.953Z,15.82
2023-04-18T00:06:41.188Z,17.85
2023-04-18T00:09:08.096Z,15.43
2023-04-18T00:11:35.098Z,14.13
2023-04-18T00:14:03.222Z,16.85
2023-04-18T00:16:30.456Z,16.73
2023-04-18T00:18:57.353Z,18.92
2023-04-18T00:21:25.514Z,14.35
2023-04-18T00:23:52.413Z,19.75
2023-04-18T00:26:19.279Z,16.13
2023-04-18T00:28:46.012Z,15.48
2023-04-18T00:31:12.764Z,14.63
2023-04-18T00:33:39.600Z,17.10
2023-04-18T00:36:06.641Z,15.77
2023-04-18T00:38:33.406Z,19.38
2023-04-18T00:41:00.158Z,16.25
2023-04-18T00:43:26.984Z,14.88
2023-04-18T00:45:54.012Z,14.88
2023-04-18T00:48:21.016Z,14.15
2023-04-18T00:50:47.769Z,16.52
2023-04-18T00:53:15.408Z,11.15
2023-04-18T00:55:42.206Z,15.55
2023-04-18T00:58:09.458Z,14.40
2023-04-18T01:00:36.778Z,16.08
2023-04-18T01:03:03.715Z,12.23
2023-04-18T01:05:30.746Z,14.38
2023-04-18T01:08:00.849Z,14.70
2023-04-18T01:10:28.663Z,14.23
2023-04-18T01:13:19.062Z,13.98
2023-04-18T01:15:50.596Z,16.65
2023-04-18T01:18:17.911Z,12.35
2023-04-18T01:20:50.569Z,11.30
2023-04-18T01:23:18.977Z,15.95
2023-04-18T01:25:47.469Z,13.82
2023-04-18T01:28:15.219Z,13.10
2023-04-18T01:30:41.966Z,18.17
2023-04-18T01:33:08.716Z,13.40
2023-04-18T01:35:35.641Z,15.10
2023-04-18T01:38:02.522Z,12.70
2023-04-18T01:40:30.002Z,11.73
2023-04-18T01:42:56.718Z,14.82
2023-04-18T01:45:23.535Z,13.35
2023-04-18T01:47:50.334Z,13.05
2023-04-18T01:50:17.204Z,14.77
2023-04-18T01:52:43.964Z,12.15
2023-04-18T01:55:10.915Z,12.32
2023-04-18T01:57:38.396Z,18.17
2023-04-18T02:00:07.555Z,14.32
2023-04-18T02:02:34.427Z,17.15
2023-04-18T02:05:01.519Z,14.13
2023-04-18T02:07:28.276Z,13.98
2023-04-18T02:09:55.089Z,13.07
2023-04-18T02:12:21.848Z,12.40
2023-04-18T02:14:54.964Z,13.88
2023-04-18T02:17:23.283Z,13.98
2023-04-18T02:19:51.652Z,12.55
2023-04-18T02:22:19.071Z,11.85
2023-04-18T02:24:46.173Z,17.30
2023-04-18T02:27:13.248Z,14.48
2023-04-18T02:29:40.009Z,15.25
2023-04-18T02:32:07.018Z,15.25
2023-04-18T02:34:33.994Z,11.55
2023-04-18T02:37:00.828Z,15.10
2023-04-18T02:39:27.693Z,15.77
2023-04-18T02:41:54.465Z,13.95
2023-04-18T02:44:21.280Z,17.90
2023-04-18T02:46:48.009Z,13.88
2023-04-18T02:49:14.843Z,16.98
2023-04-18T02:51:41.675Z,24.80
2023-04-18T02:54:08.550Z,14.35
2023-04-18T02:56:39.790Z,19.33
2023-04-18T02:59:07.319Z,15.27
2023-04-18T03:01:34.282Z,14.38
2023-04-18T03:04:01.100Z,14.13
2023-04-18T03:06:27.795Z,14.60
2023-04-18T03:08:55.693Z,11.57
2023-04-18T03:11:22.468Z,13.23
2023-04-18T03:13:49.386Z,11.70
2023-04-18T03:16:16.745Z,13.55
2023-04-18T03:18:43.593Z,16.40
2023-04-18T03:21:11.291Z,14.13
2023-04-18T03:23:38.361Z,16.92
2023-04-18T03:26:07.775Z,14.27
2023-04-18T03:28:35.010Z,14.25
2023-04-18T03:31:01.831Z,13.50
2023-04-18T03:33:28.801Z,13.63
2023-04-18T03:35:55.531Z,13.40
2023-04-18T03:38:22.498Z,15.48
2023-04-18T03:40:49.365Z,14.75
2023-04-18T03:43:16.160Z,12.80
2023-04-18T03:45:44.127Z,14.18
2023-04-18T03:48:10.937Z,11.32
2023-04-18T03:50:37.710Z,14.73
2023-04-18T03:53:04.452Z,13.75
2023-04-18T03:55:31.476Z,12.27
2023-04-18T03:57:59.120Z,15.73
2023-04-18T04:22:53.272Z,13.98
2023-04-18T04:25:20.097Z,11.05
2023-04-18T04:27:46.830Z,11.63
2023-04-18T04:30:13.770Z,14.65
2023-04-18T04:32:40.714Z,12.40
2023-04-18T04:35:08.499Z,12.50
2023-04-18T04:37:35.384Z,12.82
2023-04-18T04:40:02.620Z,12.73
2023-04-18T04:42:29.393Z,14.63
2023-04-18T04:44:56.472Z,13.80
2023-04-18T04:47:23.230Z,12.07
2023-04-18T04:49:49.993Z,15.13
2023-04-18T04:52:16.728Z,13.43
2023-04-18T04:54:45.674Z,13.43
2023-04-18T04:57:12.833Z,14.98
2023-04-18T04:59:39.601Z,12.90
2023-04-18T05:02:06.407Z,12.90
2023-04-18T05:04:33.297Z,13.60
2023-04-18T05:07:00.129Z,14.20
2023-04-18T05:09:26.867Z,14.27
2023-04-18T05:11:53.595Z,12.98
2023-04-18T05:14:20.792Z,13.50
2023-04-18T05:16:47.698Z,13.77
2023-04-18T05:19:14.551Z,18.00
2023-04-18T05:21:41.587Z,11.63
2023-04-18T05:24:08.477Z,15.88
2023-04-18T05:26:35.339Z,13.02
2023-04-18T05:29:02.142Z,12.73
2023-04-18T05:31:29.319Z,13.02
2023-04-18T05:33:56.180Z,16.63
2023-04-18T05:36:22.964Z,12.50
2023-04-18T05:38:49.950Z,11.50
2023-04-18T05:41:16.686Z,15.50
2023-04-18T05:43:46.370Z,13.02
2023-04-18T05:46:21.377Z,12.88
2023-04-18T05:48:48.145Z,12.88
2023-04-18T05:51:15.072Z,12.50
2023-04-18T05:53:41.825Z,13.85
2023-04-18T05:56:08.620Z,12.07
2023-04-18T05:58:35.358Z,11.45
2023-04-18T06:01:02.890Z,10.75
2023-04-18T06:03:29.782Z,9.98
2023-04-18T06:05:56.832Z,11.18
2023-04-18T06:08:23.776Z,11.23
2023-04-18T06:10:50.487Z,14.38
2023-04-18T06:13:17.214Z,13.20
2023-04-18T06:15:43.990Z,10.98
2023-04-18T06:18:10.743Z,15.50
2023-04-18T06:20:37.491Z,12.90
2023-04-18T06:23:04.277Z,12.45
2023-04-18T06:25:31.075Z,12.18
2023-04-18T06:27:57.784Z,12.93
2023-04-18T06:30:24.612Z,11.05
2023-04-18T06:32:51.391Z,12.93
2023-04-18T06:35:18.276Z,11.68
2023-04-18T06:37:45.365Z,12.02
2023-04-18T06:40:12.539Z,11.98
2023-04-18T06:42:39.479Z,11.60
2023-04-18T06:45:07.213Z,11.40
2023-04-18T06:47:34.109Z,13.25
2023-04-18T06:50:01.093Z,15.23
2023-04-18T06:52:27.867Z,13.20
2023-04-18T06:54:54.608Z,12.73
2023-04-18T06:57:21.419Z,12.80
2023-04-18T06:59:48.142Z,13.80
2023-04-18T07:02:15.364Z,11.27
2023-04-18T07:04:42.202Z,17.40
2023-04-18T07:07:09.116Z,14.63
2023-04-18T07:09:35.878Z,11.68
2023-04-18T07:12:03.020Z,14.20
2023-04-18T07:14:30.796Z,13.63
2023-04-18T07:16:58.566Z,13.95
2023-04-18T07:19:25.343Z,12.07
2023-04-18T07:21:52.165Z,14.63
2023-04-18T07:24:18.978Z,15.18
2023-04-18T07:26:45.796Z,13.38
2023-04-18T07:29:12.574Z,12.68
2023-04-18T07:31:39.312Z,12.75
2023-04-18T07:34:06.162Z,16.17
2023-04-18T07:36:33.002Z,14.63
2023-04-18T07:38:59.750Z,11.32
2023-04-18T07:41:26.507Z,13.65
2023-04-18T07:43:53.250Z,11.27
2023-04-18T07:46:20.208Z,13.98
2023-04-18T07:48:46.961Z,10.77
2023-04-18T07:51:13.887Z,13.43
2023-04-18T07:53:41.137Z,12.32
2023-04-18T07:56:07.982Z,10.88
2023-04-18T07:58:35.273Z,10.63
2023-04-18T08:01:02.743Z,11.52
2023-04-18T08:03:29.714Z,10.82
2023-04-18T08:05:56.763Z,11.60
2023-04-18T08:08:23.595Z,12.35
2023-04-18T08:10:50.809Z,11.00
2023-04-18T08:13:17.940Z,9.40
2023-04-18T08:15:44.765Z,8.77
2023-04-18T08:18:11.575Z,10.60
2023-04-18T08:20:38.578Z,8.15
2023-04-18T08:23:07.983Z,8.15
2023-04-18T08:25:37.210Z,10.57
2023-04-18T08:28:04.377Z,8.02
2023-04-18T08:30:31.864Z,7.50
2023-04-18T08:33:00.602Z,6.20
2023-04-18T08:35:27.479Z,5.30
2023-04-18T08:37:54.572Z,4.72
2023-04-18T08:40:21.872Z,5.28
2023-04-18T08:42:52.393Z,5.53
2023-04-18T08:45:20.743Z,6.03
2023-04-18T08:47:47.688Z,5.72
2023-04-18T08:50:17.130Z,4.95
2023-04-18T08:52:50.225Z,4.60
2023-04-18T08:55:18.913Z,4.32
2023-04-18T08:57:45.682Z,5.43
2023-04-18T09:00:13.627Z,4.93
2023-04-18T09:02:45.038Z,5.95
2023-04-18T09:05:21.142Z,6.05
2023-04-18T09:07:53.007Z,5.28
2023-04-18T09:10:33.545Z,9.43
2023-04-18T09:13:03.550Z,6.72
2023-04-18T09:15:31.376Z,7.82
2023-04-18T09:18:05.586Z,6.03
2023-04-18T09:20:43.608Z,7.80
2023-04-18T09:23:16.124Z,7.32
2023-04-18T09:25:47.997Z,7.93
2023-04-18T09:28:33.170Z,8.02
2023-04-18T09:31:11.696Z,8.20
2023-04-18T09:33:44.702Z,9.27
2023-04-18T09:36:24.824Z,7.45
2023-04-18T09:38:56.193Z,8.52
2023-04-18T09:41:23.765Z,8.15
2023-04-18T09:44:08.991Z,9.50
2023-04-18T09:46:37.176Z,8.68
2023-04-18T09:49:03.965Z,9.25
2023-04-18T09:51:31.776Z,9.73
2023-04-18T09:53:58.579Z,9.93
2023-04-18T09:56:28.431Z,8.75
2023-04-18T09:59:11.210Z,10.65
2023-04-18T10:01:41.230Z,9.13
2023-04-18T10:04:09.664Z,8.20
2023-04-18T10:06:39.620Z,11.13
2023-04-18T10:09:09.396Z,7.70
2023-04-18T10:11:36.890Z,8.82
2023-04-18T10:14:09.994Z,9.73
2023-04-18T10:16:38.135Z,8.00
2023-04-18T10:19:25.891Z,11.20
2023-04-18T10:21:54.043Z,9.90
2023-04-18T10:24:52.962Z,9.85
2023-04-18T10:27:47.465Z,11.63
2023-04-18T10:30:18.377Z,11.50
2023-04-18T10:32:48.254Z,13.35
2023-04-18T10:35:15.004Z,12.80
2023-04-18T10:37:59.213Z,12.13
2023-04-18T10:40:36.455Z,10.65
2023-04-18T10:43:03.188Z,9.70
2023-04-18T10:45:36.134Z,10.73
2023-04-18T10:48:27.530Z,10.63
2023-04-18T10:51:13.941Z,13.05
2023-04-18T10:53:57.684Z,10.85
2023-04-18T10:56:26.073Z,15.25
2023-04-18T10:58:53.578Z,11.77
2023-04-18T11:01:32.498Z,13.15
2023-04-18T11:04:00.793Z,13.95
2023-04-18T11:06:28.453Z,13.10
2023-04-18T11:09:12.504Z,12.02
2023-04-18T11:11:39.951Z,12.23
2023-04-18T11:14:06.892Z,13.02
2023-04-18T11:16:34.412Z,11.18
2023-04-18T11:19:01.734Z,13.73
2023-04-18T11:21:30.618Z,12.05
2023-04-18T11:23:58.387Z,12.30
2023-04-18T11:26:28.975Z,11.88
2023-04-18T11:28:58.956Z,10.10
2023-04-18T11:31:25.834Z,9.13
2023-04-18T11:33:52.713Z,9.20
2023-04-18T11:36:19.512Z,12.00
2023-04-18T11:38:46.488Z,11.10
2023-04-18T11:41:16.523Z,10.73
2023-04-18T11:43:46.271Z,10.40
2023-04-18T11:46:13.856Z,9.57
2023-04-18T11:48:45.115Z,12.40
2023-04-18T11:51:36.117Z,12.50
2023-04-18T11:54:03.089Z,10.68
2023-04-18T11:56:31.570Z,13.15
2023-04-18T11:58:58.373Z,11.68
2023-04-18T12:01:27.072Z,12.43
2023-04-18T12:04:08.451Z,11.02
2023-04-18T12:06:53.526Z,10.82
2023-04-18T12:09:24.563Z,9.98
2023-04-18T12:12:03.611Z,12.13
2023-04-18T12:14:30.767Z,12.52
2023-04-18T12:16:57.551Z,13.90
2023-04-18T12:19:28.109Z,12.18
2023-04-18T12:22:09.852Z,10.98
2023-04-18T12:24:37.830Z,12.38
2023-04-18T12:27:05.034Z,10.70
2023-04-18T12:29:31.766Z,12.40
2023-04-18T12:31:58.625Z,12.80
2023-04-18T12:34:25.596Z,12.85
2023-04-18T12:36:52.395Z,11.30
2023-04-18T12:39:19.213Z,10.95
2023-04-18T12:41:49.054Z,13.50
2023-04-18T12:44:16.713Z,11.32
2023-04-18T12:46:43.500Z,12.48
2023-04-18T12:49:10.410Z,14.70
2023-04-18T12:51:37.162Z,13.98
2023-04-18T12:54:04.089Z,11.15
2023-04-18T12:56:30.827Z,12.20
2023-04-18T12:58:57.556Z,10.55
2023-04-18T13:01:24.302Z,12.65
2023-04-18T13:04:03.813Z,10.68
2023-04-18T13:06:35.568Z,10.50
2023-04-18T13:09:02.286Z,12.88
2023-04-18T13:11:29.822Z,13.50
2023-04-18T13:13:56.600Z,12.68
2023-04-18T13:16:23.542Z,11.68
2023-04-18T13:18:50.471Z,11.73
2023-04-18T13:21:17.614Z,11.13
2023-04-18T13:23:44.385Z,12.52
2023-04-18T13:26:11.135Z,11.25
2023-04-18T13:28:37.874Z,12.45
2023-04-18T13:31:05.270Z,13.75
2023-04-18T13:33:31.997Z,10.95
2023-04-18T13:35:58.721Z,13.15
2023-04-18T13:38:27.367Z,15.80
2023-04-18T13:41:08.578Z,15.30
2023-04-18T13:43:38.758Z,15.13
2023-04-18T13:46:05.633Z,15.80
2023-04-18T13:48:32.364Z,14.02
2023-04-18T13:50:59.094Z,15.73
2023-04-18T13:53:25.880Z,16.85
2023-04-18T13:55:52.609Z,14.68
2023-04-18T13:58:19.352Z,15.52
2023-04-18T14:00:46.180Z,12.90
2023-04-18T14:03:13.080Z,12.35
2023-04-18T14:05:39.954Z,15.40
2023-04-18T14:08:06.824Z,15.43
2023-04-18T14:10:33.708Z,16.58
2023-04-18T14:13:00.763Z,17.52
2023-04-18T14:15:27.655Z,15.98
2023-04-18T14:17:54.453Z,14.77
2023-04-18T14:20:21.215Z,14.25
2023-04-18T14:22:52.388Z,13.98
2023-04-18T14:25:19.923Z,15.18
2023-04-18T14:27:48.035Z,16.25
2023-04-18T14:30:15.216Z,16.10
2023-04-18T14:32:42.085Z,16.50
2023-04-18T14:35:10.599Z,15.30
2023-04-18T14:37:37.595Z,14.73
2023-04-18T14:40:05.415Z,13.98
2023-04-18T14:42:32.220Z,14.52
2023-04-18T14:45:00.503Z,15.77
2023-04-18T14:47:31.727Z,16.02
2023-04-18T14:49:58.639Z,21.88
2023-04-18T14:52:25.567Z,16.50
2023-04-18T14:54:52.317Z,17.58
2023-04-18T14:57:19.120Z,16.33
2023-04-18T14:59:45.974Z,16.92
2023-04-18T15:02:12.958Z,18.77
2023-04-18T15:04:40.026Z,19.25
2023-04-18T15:07:07.075Z,18.52
2023-04-18T15:09:40.105Z,16.38
2023-04-18T15:12:07.246Z,16.08
2023-04-18T15:14:35.581Z,18.88
2023-04-18T15:17:03.274Z,18.48
2023-04-18T15:19:31.523Z,16.65
2023-04-18T15:21:58.538Z,16.95
2023-04-18T15:24:25.818Z,14.82
2023-04-18T15:26:52.681Z,12.73
2023-04-18T15:29:19.509Z,14.27
2023-04-18T15:31:47.009Z,13.20
2023-04-18T15:34:14.131Z,15.27
2023-04-18T15:36:41.418Z,14.23
2023-04-18T15:39:09.108Z,14.48
2023-04-18T15:41:36.891Z,11.50
2023-04-18T15:44:06.614Z,15.68
2023-04-18T15:46:34.801Z,17.75
2023-04-18T15:49:01.641Z,15.07
2023-04-18T15:51:30.197Z,16.20
2023-04-18T15:53:56.960Z,15.00
2023-04-18T15:56:26.774Z,14.75
2023-04-18T15:58:56.812Z,17.60
2023-04-18T16:01:23.880Z,17.00
2023-04-18T16:03:50.762Z,17.75
2023-04-18T16:06:22.210Z,12.25
2023-04-18T16:08:49.971Z,13.05
2023-04-18T16:11:17.998Z,13.07
2023-04-18T16:13:44.778Z,12.23
2023-04-18T16:16:11.849Z,11.70
2023-04-18T16:18:39.391Z,17.25
2023-04-18T16:21:06.190Z,12.18
2023-04-18T16:23:33.021Z,12.60
2023-04-18T16:25:59.889Z,13.75
2023-04-18T16:28:26.773Z,11.35
2023-04-18T16:30:55.604Z,14.25
2023-04-18T16:33:25.870Z,14.23
2023-04-18T16:35:53.127Z,12.20
2023-04-18T16:38:23.267Z,13.45
2023-04-18T16:40:50.037Z,12.10
2023-04-18T16:43:16.894Z,12.40
2023-04-18T16:45:43.663Z,13.15
2023-04-18T16:48:10.448Z,13.10
2023-04-18T16:50:37.348Z,13.23
2023-04-18T16:53:04.095Z,13.63
2023-04-18T16:55:30.965Z,17.05
2023-04-18T16:57:57.695Z,14.05
2023-04-18T17:00:24.971Z,14.05
2023-04-18T17:02:52.149Z,12.55
2023-04-18T17:05:19.350Z,13.52
2023-04-18T17:07:47.695Z,14.35
2023-04-18T17:10:14.441Z,15.43
2023-04-18T17:12:41.344Z,15.18
2023-04-18T17:15:08.415Z,12.55
2023-04-18T17:17:35.489Z,14.13
2023-04-18T17:20:02.271Z,13.43
2023-04-18T17:22:29.409Z,14.88
2023-04-18T17:24:56.175Z,16.58
2023-04-18T17:27:23.027Z,13.50
2023-04-18T17:29:49.870Z,15.00
2023-04-18T17:32:16.660Z,12.40
2023-04-18T17:34:43.462Z,14.65
2023-04-18T17:37:11.458Z,14.73
2023-04-18T17:39:38.978Z,13.82
2023-04-18T17:42:05.862Z,14.70
2023-04-18T17:44:32.635Z,13.55
2023-04-18T17:47:00.861Z,15.25
2023-04-18T17:49:34.264Z,13.85
2023-04-18T17:52:02.042Z,17.45
2023-04-18T17:54:28.858Z,12.63
2023-04-18T17:56:55.787Z,16.05
2023-04-18T17:59:22.537Z,14.18
2023-04-18T18:01:49.372Z,13.50
2023-04-18T18:04:16.717Z,15.55
2023-04-18T18:06:57.075Z,14.57
2023-04-18T18:09:23.877Z,17.65
2023-04-18T18:11:50.722Z,15.25
2023-04-18T18:14:17.482Z,15.00
2023-04-18T18:16:44.237Z,13.63
2023-04-18T18:19:11.077Z,14.25
2023-04-18T18:21:37.833Z,15.63
2023-04-18T18:24:04.776Z,15.00
2023-04-18T18:26:31.548Z,15.98
2023-04-18T18:28:58.404Z,16.08
2023-04-18T18:31:25.604Z,16.35
2023-04-18T18:33:52.550Z,13.70
2023-04-18T18:36:19.312Z,16.20
2023-04-18T18:38:46.057Z,14.13
2023-04-18T18:41:12.850Z,14.27
2023-04-18T18:43:39.626Z,13.30
2023-04-18T18:46:06.378Z,12.90
2023-04-18T18:48:36.777Z,12.68
2023-04-18T18:51:03.659Z,13.77
2023-04-18T18:53:30.441Z,13.40
2023-04-18T18:55:57.172Z,15.15
2023-04-18T18:58:23.952Z,16.63
2023-04-18T19:00:51.500Z,15.52
2023-04-18T19:03:21.033Z,13.73
2023-04-18T19:05:48.009Z,15.80
2023-04-18T19:08:14.766Z,15.02
2023-04-18T19:10:41.940Z,14.45
2023-04-18T19:13:08.682Z,15.27
2023-04-18T19:15:35.532Z,17.98
2023-04-18T19:18:02.267Z,17.00
2023-04-18T19:20:29.333Z,18.90
2023-04-18T19:22:56.155Z,16.85
2023-04-18T19:25:22.963Z,17.25
2023-04-18T19:27:49.704Z,16.00
2023-04-18T19:30:16.506Z,17.40
2023-04-18T19:32:43.281Z,17.80
2023-04-18T19:35:13.003Z,16.80
2023-04-18T19:37:39.742Z,17.52
2023-04-18T19:40:07.463Z,17.75
2023-04-18T19:42:34.202Z,19.40
2023-04-18T19:45:00.979Z,16.55
2023-04-18T19:47:31.988Z,19.77
2023-04-18T19:49:58.787Z,17.65
2023-04-18T19:52:25.594Z,20.70
2023-04-18T19:54:53.430Z,21.52
2023-04-18T19:57:20.163Z,23.80
2023-04-18T19:59:46.938Z,20.70
2023-04-18T20:02:13.648Z,18.38
2023-04-18T20:04:41.786Z,17.77
2023-04-18T20:07:08.614Z,19.35
2023-04-18T20:09:35.339Z,17.55
2023-04-18T20:12:02.557Z,19.48
2023-04-18T20:14:29.699Z,18.70
2023-04-18T20:16:56.885Z,18.80
2023-04-18T20:19:26.735Z,21.02
2023-04-18T20:21:53.494Z,19.90
2023-04-18T20:24:21.093Z,17.02
2023-04-18T20:26:48.089Z,17.60
2023-04-18T20:29:15.026Z,19.20
2023-04-18T20:31:42.381Z,18.77
2023-04-18T20:34:09.845Z,20.02
2023-04-18T20:36:41.404Z,18.33
2023-04-18T20:39:09.087Z,18.27
2023-04-18T20:41:36.806Z,18.50
2023-04-18T20:44:09.884Z,18.02
2023-04-18T20:46:36.722Z,19.75
2023-04-18T20:49:03.509Z,18.20
2023-04-18T20:51:31.718Z,17.17
2023-04-18T20:53:58.466Z,16.80
2023-04-18T20:56:25.188Z,16.67
2023-04-18T20:58:51.983Z,16.92
2023-04-18T21:01:18.767Z,18.15
2023-04-18T21:03:45.809Z,17.35
2023-04-18T21:06:12.938Z,18.30
2023-04-18T21:08:39.741Z,16.48
2023-04-18T21:11:07.463Z,19.77
2023-04-18T21:13:34.924Z,18.50
2023-04-18T21:16:03.410Z,17.70
2023-04-18T21:18:30.256Z,16.30
2023-04-18T21:20:56.970Z,16.92
2023-04-18T21:23:24.350Z,17.88
2023-04-18T21:25:51.079Z,16.42
2023-04-18T21:28:20.262Z,15.68
2023-04-18T21:30:47.006Z,16.52
2023-04-18T21:33:15.356Z,18.08
2023-04-18T21:35:42.247Z,16.60
2023-04-18T21:38:09.071Z,16.10
2023-04-18T21:40:37.221Z,16.60
2023-04-18T21:43:03.961Z,14.48
2023-04-18T21:45:30.972Z,17.80
2023-04-18T21:47:57.774Z,15.88
2023-04-18T21:50:24.679Z,14.27
2023-04-18T21:52:51.378Z,16.05
2023-04-18T21:55:18.326Z,14.32
2023-04-18T21:57:45.037Z,15.88
2023-04-18T22:00:12.803Z,15.15
2023-04-18T22:02:39.642Z,17.95
2023-04-18T22:05:07.566Z,17.05
2023-04-18T22:07:38.524Z,15.75
2023-04-18T22:10:10.905Z,15.65
2023-04-18T22:12:37.682Z,16.85
2023-04-18T22:15:05.353Z,16.05
2023-04-18T22:17:32.190Z,15.73
2023-04-18T22:19:59.533Z,17.08
2023-04-18T22:22:26.637Z,17.63
2023-04-18T22:24:53.438Z,15.93
2023-04-18T22:27:20.213Z,16.35
2023-04-18T22:29:46.987Z,17.48
2023-04-18T22:32:13.714Z,14.88
2023-04-18T22:34:40.596Z,15.68
2023-04-18T22:37:07.380Z,14.15
2023-04-18T22:39:34.204Z,15.35
2023-04-18T22:42:01.006Z,16.35
2023-04-18T22:44:27.723Z,15.18
2023-04-18T22:46:54.597Z,17.25
2023-04-18T22:49:22.128Z,14.60
2023-04-18T22:51:49.484Z,16.17
2023-04-18T22:54:16.401Z,16.35
2023-04-18T22:56:43.341Z,14.98
2023-04-18T22:59:10.061Z,15.23
2023-04-18T23:01:36.906Z,15.70
2023-04-18T23:04:03.946Z,14.38
2023-04-18T23:06:31.456Z,17.20
2023-04-18T23:08:58.573Z,18.67
2023-04-18T23:11:26.162Z,18.52
2023-04-18T23:13:52.876Z,17.15
2023-04-18T23:16:19.677Z,16.55
2023-04-18T23:18:46.463Z,18.52
2023-04-18T23:21:13.267Z,16.25
2023-04-18T23:23:40.018Z,18.33
2023-04-18T23:26:16.299Z,16.08
2023-04-18T23:28:43.088Z,16.92
2023-04-18T23:31:10.094Z,15.15
2023-04-18T23:33:37.367Z,16.00
2023-04-18T23:36:04.232Z,17.90
2023-04-18T23:38:31.249Z,17.88
2023-04-18T23:40:58.094Z,20.08
2023-04-18T23:43:24.899Z,18.27
2023-04-18T23:45:51.615Z,17.70
2023-04-18T23:48:18.339Z,17.17
2023-04-18T23:50:52.018Z,16.20
2023-04-18T23:53:20.703Z,17.50
2023-04-18T23:55:50.582Z,17.83
2023-04-18T23:58:17.760Z,18.88
